sensor_id;sensor_type;location;lat;lon;timestamp;temperature;humidity
21906;DHT22;11117;48.644;9.006;2022-08-25T00:00:08;18.90;99.90
21906;DHT22;11117;48.644;9.006;2022-08-25T00:02:34;18.90;99.90
21906;DHT22;11117;48.644;9.006;2022-08-25T00:05:07;18.90;99.90
21906;DHT22;11117;48.644;9.006;2022-08-25T00:07:36;18.80;99.90
21906;DHT22;11117;48.644;9.006;2022-08-25T00:10:04;18.80;99.90
21906;DHT22;11117;48.644;9.006;2022-08-25T00:12:32;18.70;99.90
21906;DHT22;11117;48.644;9.006;2022-08-25T00:15:00;18.70;99.90
21906;DHT22;11117;48.644;9.006;2022-08-25T00:17:26;18.70;99.90
21906;DHT22;11117;48.644;9.006;2022-08-25T00:19:51;18.60;99.90
21906;DHT22;11117;48.644;9.006;2022-08-25T00:22:17;18.60;99.90
21906;DHT22;11117;48.644;9.006;2022-08-25T00:24:42;18.60;99.90
21906;DHT22;11117;48.644;9.006;2022-08-25T00:27:08;18.60;99.90
21906;DHT22;11117;48.644;9.006;2022-08-25T00:29:34;18.50;99.90
21906;DHT22;11117;48.644;9.006;2022-08-25T00:32:00;18.50;99.90
21906;DHT22;11117;48.644;9.006;2022-08-25T00:34:30;18.50;99.90
21906;DHT22;11117;48.644;9.006;2022-08-25T00:36:55;18.50;99.90
21906;DHT22;11117;48.644;9.006;2022-08-25T00:39:22;18.50;99.90
21906;DHT22;11117;48.644;9.006;2022-08-25T00:41:53;18.40;99.90
21906;DHT22;11117;48.644;9.006;2022-08-25T00:44:19;18.40;99.90
21906;DHT22;11117;48.644;9.006;2022-08-25T00:46:48;18.40;99.90
21906;DHT22;11117;48.644;9.006;2022-08-25T00:49:18;18.30;99.90
21906;DHT22;11117;48.644;9.006;2022-08-25T00:51:53;18.30;99.90
21906;DHT22;11117;48.644;9.006;2022-08-25T00:54:24;18.30;99.90
21906;DHT22;11117;48.644;9.006;2022-08-25T00:56:50;18.30;99.90
21906;DHT22;11117;48.644;9.006;2022-08-25T00:59:21;18.30;99.90
21906;DHT22;11117;48.644;9.006;2022-08-25T01:01:48;18.30;99.90
21906;DHT22;11117;48.644;9.006;2022-08-25T01:04:13;18.20;99.90
21906;DHT22;11117;48.644;9.006;2022-08-25T01:06:41;18.30;99.90
21906;DHT22;11117;48.644;9.006;2022-08-25T01:09:07;18.20;99.90
21906;DHT22;11117;48.644;9.006;2022-08-25T01:11:34;18.20;99.90
21906;DHT22;11117;48.644;9.006;2022-08-25T01:14:00;18.20;99.90
21906;DHT22;11117;48.644;9.006;2022-08-25T01:16:26;18.20;99.90
21906;DHT22;11117;48.644;9.006;2022-08-25T01:18:55;18.20;99.90
21906;DHT22;11117;48.644;9.006;2022-08-25T01:21:22;18.20;99.90
21906;DHT22;11117;48.644;9.006;2022-08-25T01:23:50;18.20;99.90
21906;DHT22;11117;48.644;9.006;2022-08-25T01:28:44;18.20;99.90
21906;DHT22;11117;48.644;9.006;2022-08-25T01:31:10;18.20;99.90
21906;DHT22;11117;48.644;9.006;2022-08-25T01:33:36;18.10;99.90
21906;DHT22;11117;48.644;9.006;2022-08-25T01:36:02;18.10;99.90
21906;DHT22;11117;48.644;9.006;2022-08-25T01:38:27;18.10;99.90
21906;DHT22;11117;48.644;9.006;2022-08-25T01:40:53;18.10;99.90
21906;DHT22;11117;48.644;9.006;2022-08-25T01:43:34;18.00;99.90
21906;DHT22;11117;48.644;9.006;2022-08-25T01:46:00;18.00;99.90
21906;DHT22;11117;48.644;9.006;2022-08-25T01:48:25;18.00;99.90
21906;DHT22;11117;48.644;9.006;2022-08-25T01:50:51;18.00;99.90
21906;DHT22;11117;48.644;9.006;2022-08-25T01:53:18;18.00;99.90
21906;DHT22;11117;48.644;9.006;2022-08-25T01:55:46;18.00;99.90
21906;DHT22;11117;48.644;9.006;2022-08-25T01:58:11;17.90;99.90
21906;DHT22;11117;48.644;9.006;2022-08-25T02:00:37;17.90;99.90
21906;DHT22;11117;48.644;9.006;2022-08-25T02:03:03;17.90;99.90
21906;DHT22;11117;48.644;9.006;2022-08-25T02:05:28;17.90;99.90
21906;DHT22;11117;48.644;9.006;2022-08-25T02:07:54;17.90;99.90
21906;DHT22;11117;48.644;9.006;2022-08-25T02:10:20;17.90;99.90
21906;DHT22;11117;48.644;9.006;2022-08-25T02:12:45;17.90;99.90
21906;DHT22;11117;48.644;9.006;2022-08-25T02:15:11;17.90;99.90
21906;DHT22;11117;48.644;9.006;2022-08-25T02:17:36;17.90;99.90
21906;DHT22;11117;48.644;9.006;2022-08-25T02:20:06;17.90;99.90
21906;DHT22;11117;48.644;9.006;2022-08-25T02:22:32;17.90;99.90
21906;DHT22;11117;48.644;9.006;2022-08-25T02:24:57;17.90;99.90
21906;DHT22;11117;48.644;9.006;2022-08-25T02:27:23;17.90;99.90
21906;DHT22;11117;48.644;9.006;2022-08-25T02:29:48;17.90;99.90
21906;DHT22;11117;48.644;9.006;2022-08-25T02:32:14;17.90;99.90
21906;DHT22;11117;48.644;9.006;2022-08-25T02:34:40;17.90;99.90
21906;DHT22;11117;48.644;9.006;2022-08-25T02:37:06;17.90;99.90
21906;DHT22;11117;48.644;9.006;2022-08-25T02:39:31;17.80;99.90
21906;DHT22;11117;48.644;9.006;2022-08-25T02:41:57;17.80;99.90
21906;DHT22;11117;48.644;9.006;2022-08-25T02:44:46;17.80;99.90
21906;DHT22;11117;48.644;9.006;2022-08-25T02:47:20;17.80;99.90
21906;DHT22;11117;48.644;9.006;2022-08-25T02:49:45;17.80;99.90
21906;DHT22;11117;48.644;9.006;2022-08-25T02:52:15;17.70;99.90
21906;DHT22;11117;48.644;9.006;2022-08-25T02:54:40;17.70;99.90
21906;DHT22;11117;48.644;9.006;2022-08-25T02:57:06;17.70;99.90
21906;DHT22;11117;48.644;9.006;2022-08-25T03:02:20;17.30;99.90
21906;DHT22;11117;48.644;9.006;2022-08-25T03:04:45;17.10;99.90
21906;DHT22;11117;48.644;9.006;2022-08-25T03:07:11;17.10;99.90
21906;DHT22;11117;48.644;9.006;2022-08-25T03:09:37;16.90;99.90
21906;DHT22;11117;48.644;9.006;2022-08-25T03:12:03;16.90;99.90
21906;DHT22;11117;48.644;9.006;2022-08-25T03:14:29;16.80;99.90
21906;DHT22;11117;48.644;9.006;2022-08-25T03:17:00;16.80;99.90
21906;DHT22;11117;48.644;9.006;2022-08-25T03:19:26;16.70;99.90
21906;DHT22;11117;48.644;9.006;2022-08-25T03:21:52;16.70;99.90
21906;DHT22;11117;48.644;9.006;2022-08-25T03:24:17;16.60;99.90
21906;DHT22;11117;48.644;9.006;2022-08-25T03:26:43;16.50;99.90
21906;DHT22;11117;48.644;9.006;2022-08-25T03:29:09;16.50;99.90
21906;DHT22;11117;48.644;9.006;2022-08-25T03:31:36;16.30;99.90
21906;DHT22;11117;48.644;9.006;2022-08-25T03:34:01;16.30;99.90
21906;DHT22;11117;48.644;9.006;2022-08-25T03:36:30;16.40;99.90
21906;DHT22;11117;48.644;9.006;2022-08-25T03:38:55;16.40;99.90
21906;DHT22;11117;48.644;9.006;2022-08-25T03:41:24;16.30;99.90
21906;DHT22;11117;48.644;9.006;2022-08-25T03:43:52;16.30;99.90
21906;DHT22;11117;48.644;9.006;2022-08-25T03:46:38;16.30;99.90
21906;DHT22;11117;48.644;9.006;2022-08-25T03:49:06;16.30;99.90
21906;DHT22;11117;48.644;9.006;2022-08-25T03:51:40;16.30;99.90
21906;DHT22;11117;48.644;9.006;2022-08-25T03:54:10;16.30;99.90
21906;DHT22;11117;48.644;9.006;2022-08-25T03:56:39;16.30;99.90
21906;DHT22;11117;48.644;9.006;2022-08-25T03:59:05;16.20;99.90
21906;DHT22;11117;48.644;9.006;2022-08-25T04:01:31;16.20;99.90
21906;DHT22;11117;48.644;9.006;2022-08-25T04:04:03;16.20;99.90
21906;DHT22;11117;48.644;9.006;2022-08-25T04:06:32;16.20;99.90
21906;DHT22;11117;48.644;9.006;2022-08-25T04:08:58;16.20;99.90
21906;DHT22;11117;48.644;9.006;2022-08-25T04:11:25;16.20;99.90
21906;DHT22;11117;48.644;9.006;2022-08-25T04:13:56;16.20;99.90
21906;DHT22;11117;48.644;9.006;2022-08-25T04:16:33;16.20;99.90
21906;DHT22;11117;48.644;9.006;2022-08-25T04:19:10;16.10;99.90
21906;DHT22;11117;48.644;9.006;2022-08-25T04:21:40;16.10;99.90
21906;DHT22;11117;48.644;9.006;2022-08-25T04:24:09;16.00;99.90
21906;DHT22;11117;48.644;9.006;2022-08-25T04:26:45;16.00;99.90
21906;DHT22;11117;48.644;9.006;2022-08-25T04:32:18;15.90;99.90
21906;DHT22;11117;48.644;9.006;2022-08-25T04:34:57;15.80;99.90
21906;DHT22;11117;48.644;9.006;2022-08-25T04:37:25;15.70;99.90
21906;DHT22;11117;48.644;9.006;2022-08-25T04:39:56;15.80;99.90
21906;DHT22;11117;48.644;9.006;2022-08-25T04:42:22;15.70;99.90
21906;DHT22;11117;48.644;9.006;2022-08-25T04:44:54;15.70;99.90
21906;DHT22;11117;48.644;9.006;2022-08-25T04:47:25;15.70;99.90
21906;DHT22;11117;48.644;9.006;2022-08-25T04:49:56;15.70;99.90
21906;DHT22;11117;48.644;9.006;2022-08-25T04:52:25;15.70;99.90
21906;DHT22;11117;48.644;9.006;2022-08-25T04:54:51;15.70;99.90
21906;DHT22;11117;48.644;9.006;2022-08-25T04:57:28;15.70;99.90
21906;DHT22;11117;48.644;9.006;2022-08-25T04:59:58;15.70;99.90
21906;DHT22;11117;48.644;9.006;2022-08-25T05:05:31;15.80;99.90
21906;DHT22;11117;48.644;9.006;2022-08-25T05:08:08;15.80;99.90
21906;DHT22;11117;48.644;9.006;2022-08-25T05:10:46;15.90;99.90
21906;DHT22;11117;48.644;9.006;2022-08-25T05:13:27;16.00;99.90
21906;DHT22;11117;48.644;9.006;2022-08-25T05:16:11;16.10;99.90
21906;DHT22;11117;48.644;9.006;2022-08-25T05:18:54;16.20;99.90
21906;DHT22;11117;48.644;9.006;2022-08-25T05:21:57;16.30;99.90
21906;DHT22;11117;48.644;9.006;2022-08-25T05:24:33;16.30;99.90
21906;DHT22;11117;48.644;9.006;2022-08-25T05:27:09;16.50;99.90
21906;DHT22;11117;48.644;9.006;2022-08-25T05:29:58;16.70;99.90
21906;DHT22;11117;48.644;9.006;2022-08-25T05:32:54;16.90;99.90
21906;DHT22;11117;48.644;9.006;2022-08-25T05:35:28;17.20;99.90
21906;DHT22;11117;48.644;9.006;2022-08-25T05:38:05;17.40;99.90
21906;DHT22;11117;48.644;9.006;2022-08-25T05:41:05;17.70;99.90
21906;DHT22;11117;48.644;9.006;2022-08-25T05:43:42;18.00;99.90
21906;DHT22;11117;48.644;9.006;2022-08-25T05:46:25;18.20;99.90
21906;DHT22;11117;48.644;9.006;2022-08-25T05:48:56;18.50;99.90
21906;DHT22;11117;48.644;9.006;2022-08-25T05:51:31;18.70;99.90
21906;DHT22;11117;48.644;9.006;2022-08-25T05:53:57;18.90;99.90
21906;DHT22;11117;48.644;9.006;2022-08-25T05:56:42;19.10;99.90
21906;DHT22;11117;48.644;9.006;2022-08-25T05:59:11;19.20;99.90
21906;DHT22;11117;48.644;9.006;2022-08-25T06:01:37;19.30;99.90
21906;DHT22;11117;48.644;9.006;2022-08-25T06:07:43;19.60;99.90
21906;DHT22;11117;48.644;9.006;2022-08-25T06:10:15;19.70;99.90
21906;DHT22;11117;48.644;9.006;2022-08-25T06:12:45;19.60;99.90
21906;DHT22;11117;48.644;9.006;2022-08-25T06:18:10;19.30;99.90
21906;DHT22;11117;48.644;9.006;2022-08-25T06:20:49;19.40;99.90
21906;DHT22;11117;48.644;9.006;2022-08-25T06:23:15;19.40;99.90
21906;DHT22;11117;48.644;9.006;2022-08-25T06:25:52;19.40;99.90
21906;DHT22;11117;48.644;9.006;2022-08-25T06:28:59;19.40;99.90
21906;DHT22;11117;48.644;9.006;2022-08-25T06:31:28;19.60;99.90
21906;DHT22;11117;48.644;9.006;2022-08-25T06:37:38;19.50;99.90
21906;DHT22;11117;48.644;9.006;2022-08-25T06:40:45;19.60;99.90
21906;DHT22;11117;48.644;9.006;2022-08-25T06:43:18;19.80;99.90
21906;DHT22;11117;48.644;9.006;2022-08-25T06:45:47;20.00;99.90
21906;DHT22;11117;48.644;9.006;2022-08-25T06:48:13;20.10;99.90
21906;DHT22;11117;48.644;9.006;2022-08-25T06:50:40;20.20;99.90
21906;DHT22;11117;48.644;9.006;2022-08-25T06:53:05;20.30;99.90
21906;DHT22;11117;48.644;9.006;2022-08-25T06:55:32;20.50;99.90
21906;DHT22;11117;48.644;9.006;2022-08-25T06:57:57;20.70;99.90
21906;DHT22;11117;48.644;9.006;2022-08-25T07:00:23;20.80;99.90
21906;DHT22;11117;48.644;9.006;2022-08-25T07:02:49;20.90;99.90
21906;DHT22;11117;48.644;9.006;2022-08-25T07:05:16;21.00;99.90
21906;DHT22;11117;48.644;9.006;2022-08-25T07:07:45;21.10;99.90
21906;DHT22;11117;48.644;9.006;2022-08-25T07:10:12;21.30;99.90
21906;DHT22;11117;48.644;9.006;2022-08-25T07:12:39;21.40;99.90
21906;DHT22;11117;48.644;9.006;2022-08-25T07:15:07;21.50;99.90
21906;DHT22;11117;48.644;9.006;2022-08-25T07:17:36;21.60;99.90
21906;DHT22;11117;48.644;9.006;2022-08-25T07:20:02;21.70;99.90
21906;DHT22;11117;48.644;9.006;2022-08-25T07:22:33;21.80;99.90
21906;DHT22;11117;48.644;9.006;2022-08-25T07:25:02;21.90;99.90
21906;DHT22;11117;48.644;9.006;2022-08-25T07:27:28;22.00;99.90
21906;DHT22;11117;48.644;9.006;2022-08-25T07:29:53;22.10;99.90
21906;DHT22;11117;48.644;9.006;2022-08-25T07:32:21;22.20;99.90
21906;DHT22;11117;48.644;9.006;2022-08-25T07:34:46;22.20;99.90
21906;DHT22;11117;48.644;9.006;2022-08-25T07:37:12;22.30;99.90
21906;DHT22;11117;48.644;9.006;2022-08-25T07:39:37;22.30;99.90
21906;DHT22;11117;48.644;9.006;2022-08-25T07:42:06;22.40;99.90
21906;DHT22;11117;48.644;9.006;2022-08-25T07:44:32;22.50;99.90
21906;DHT22;11117;48.644;9.006;2022-08-25T07:46:57;22.60;99.90
21906;DHT22;11117;48.644;9.006;2022-08-25T07:49:24;22.60;99.90
21906;DHT22;11117;48.644;9.006;2022-08-25T07:51:51;22.70;99.90
21906;DHT22;11117;48.644;9.006;2022-08-25T07:54:17;22.80;99.90
21906;DHT22;11117;48.644;9.006;2022-08-25T07:56:43;22.90;99.90
21906;DHT22;11117;48.644;9.006;2022-08-25T07:59:16;23.00;99.90
21906;DHT22;11117;48.644;9.006;2022-08-25T08:01:41;23.10;99.90
21906;DHT22;11117;48.644;9.006;2022-08-25T08:04:07;23.10;99.90
21906;DHT22;11117;48.644;9.006;2022-08-25T08:06:32;23.10;99.90
21906;DHT22;11117;48.644;9.006;2022-08-25T08:08:58;23.20;99.90
21906;DHT22;11117;48.644;9.006;2022-08-25T08:11:27;23.20;99.90
21906;DHT22;11117;48.644;9.006;2022-08-25T08:13:54;23.20;99.90
21906;DHT22;11117;48.644;9.006;2022-08-25T08:16:21;23.30;99.90
21906;DHT22;11117;48.644;9.006;2022-08-25T08:18:48;23.30;99.90
21906;DHT22;11117;48.644;9.006;2022-08-25T08:21:34;23.40;99.50
21906;DHT22;11117;48.644;9.006;2022-08-25T08:24:01;23.40;99.40
21906;DHT22;11117;48.644;9.006;2022-08-25T08:26:27;23.60;99.30
21906;DHT22;11117;48.644;9.006;2022-08-25T08:28:53;23.60;99.10
21906;DHT22;11117;48.644;9.006;2022-08-25T08:31:20;23.70;98.40
21906;DHT22;11117;48.644;9.006;2022-08-25T08:33:47;23.70;98.10
21906;DHT22;11117;48.644;9.006;2022-08-25T08:36:13;23.80;98.40
21906;DHT22;11117;48.644;9.006;2022-08-25T08:38:40;23.80;97.70
21906;DHT22;11117;48.644;9.006;2022-08-25T08:43:55;23.90;97.20
21906;DHT22;11117;48.644;9.006;2022-08-25T08:46:35;23.90;97.20
21906;DHT22;11117;48.644;9.006;2022-08-25T08:49:12;24.10;97.20
21906;DHT22;11117;48.644;9.006;2022-08-25T08:51:51;24.20;97.10
21906;DHT22;11117;48.644;9.006;2022-08-25T08:54:20;24.30;97.00
21906;DHT22;11117;48.644;9.006;2022-08-25T08:57:01;24.40;96.90
21906;DHT22;11117;48.644;9.006;2022-08-25T08:59:30;24.50;96.20
21906;DHT22;11117;48.644;9.006;2022-08-25T09:01:59;24.50;95.50
21906;DHT22;11117;48.644;9.006;2022-08-25T09:04:32;24.60;96.00
21906;DHT22;11117;48.644;9.006;2022-08-25T09:07:00;24.60;95.30
21906;DHT22;11117;48.644;9.006;2022-08-25T09:09:33;24.80;95.30
21906;DHT22;11117;48.644;9.006;2022-08-25T09:14:55;24.90;94.80
21906;DHT22;11117;48.644;9.006;2022-08-25T09:28:08;25.40;93.80
21906;DHT22;11117;48.644;9.006;2022-08-25T09:30:48;25.50;93.20
21906;DHT22;11117;48.644;9.006;2022-08-25T09:33:19;25.40;93.30
21906;DHT22;11117;48.644;9.006;2022-08-25T09:35:46;25.50;93.20
21906;DHT22;11117;48.644;9.006;2022-08-25T09:38:12;25.50;93.30
21906;DHT22;11117;48.644;9.006;2022-08-25T09:40:45;25.70;93.20
21906;DHT22;11117;48.644;9.006;2022-08-25T09:48:30;25.90;92.50
21906;DHT22;11117;48.644;9.006;2022-08-25T09:50:59;26.00;92.20
21906;DHT22;11117;48.644;9.006;2022-08-25T09:53:27;26.00;92.10
21906;DHT22;11117;48.644;9.006;2022-08-25T09:56:04;26.00;92.10
21906;DHT22;11117;48.644;9.006;2022-08-25T09:58:30;26.00;92.00
21906;DHT22;11117;48.644;9.006;2022-08-25T10:06:18;25.90;91.40
21906;DHT22;11117;48.644;9.006;2022-08-25T10:11:12;26.30;91.20
21906;DHT22;11117;48.644;9.006;2022-08-25T10:13:42;26.30;91.00
21906;DHT22;11117;48.644;9.006;2022-08-25T10:16:27;26.40;90.90
21906;DHT22;11117;48.644;9.006;2022-08-25T10:21:41;26.70;90.80
21906;DHT22;11117;48.644;9.006;2022-08-25T10:24:09;26.70;90.20
21906;DHT22;11117;48.644;9.006;2022-08-25T10:29:42;26.90;90.20
21906;DHT22;11117;48.644;9.006;2022-08-25T10:32:21;26.90;90.00
21906;DHT22;11117;48.644;9.006;2022-08-25T10:34:56;26.90;89.00
21906;DHT22;11117;48.644;9.006;2022-08-25T10:37:34;26.70;89.10
21906;DHT22;11117;48.644;9.006;2022-08-25T10:42:41;26.50;89.80
21906;DHT22;11117;48.644;9.006;2022-08-25T10:45:21;26.70;88.30
21906;DHT22;11117;48.644;9.006;2022-08-25T10:50:38;27.00;88.00
21906;DHT22;11117;48.644;9.006;2022-08-25T10:56:00;27.20;86.60
21906;DHT22;11117;48.644;9.006;2022-08-25T11:01:55;27.50;86.40
21906;DHT22;11117;48.644;9.006;2022-08-25T11:04:43;27.60;84.60
21906;DHT22;11117;48.644;9.006;2022-08-25T11:07:34;27.60;84.50
21906;DHT22;11117;48.644;9.006;2022-08-25T11:10:17;27.70;83.80
21906;DHT22;11117;48.644;9.006;2022-08-25T11:12:53;27.90;82.40
21906;DHT22;11117;48.644;9.006;2022-08-25T11:15:30;27.90;80.90
21906;DHT22;11117;48.644;9.006;2022-08-25T11:17:58;28.00;80.60
21906;DHT22;11117;48.644;9.006;2022-08-25T11:20:36;28.00;81.40
21906;DHT22;11117;48.644;9.006;2022-08-25T11:23:38;28.10;80.90
21906;DHT22;11117;48.644;9.006;2022-08-25T11:26:18;27.90;81.00
21906;DHT22;11117;48.644;9.006;2022-08-25T11:28:49;27.90;82.00
21906;DHT22;11117;48.644;9.006;2022-08-25T11:31:17;27.90;82.70
21906;DHT22;11117;48.644;9.006;2022-08-25T11:33:44;28.00;82.00
21906;DHT22;11117;48.644;9.006;2022-08-25T11:36:35;28.00;82.50
21906;DHT22;11117;48.644;9.006;2022-08-25T11:50:26;27.90;79.30
21906;DHT22;11117;48.644;9.006;2022-08-25T11:52:58;28.00;79.20
21906;DHT22;11117;48.644;9.006;2022-08-25T11:55:49;28.20;78.70
21906;DHT22;11117;48.644;9.006;2022-08-25T11:58:31;28.40;77.00
21906;DHT22;11117;48.644;9.006;2022-08-25T12:01:08;28.30;78.30
21906;DHT22;11117;48.644;9.006;2022-08-25T12:06:32;28.60;78.30
21906;DHT22;11117;48.644;9.006;2022-08-25T12:19:53;29.30;75.60
21906;DHT22;11117;48.644;9.006;2022-08-25T12:28:05;29.30;74.70
21906;DHT22;11117;48.644;9.006;2022-08-25T12:30:44;29.30;73.50
21906;DHT22;11117;48.644;9.006;2022-08-25T12:36:33;29.30;74.20
21906;DHT22;11117;48.644;9.006;2022-08-25T12:42:40;29.60;72.90
21906;DHT22;11117;48.644;9.006;2022-08-25T12:47:48;29.60;73.30
21906;DHT22;11117;48.644;9.006;2022-08-25T12:50:34;29.70;73.30
21906;DHT22;11117;48.644;9.006;2022-08-25T12:53:21;29.80;72.60
21906;DHT22;11117;48.644;9.006;2022-08-25T12:56:04;30.00;73.00
21906;DHT22;11117;48.644;9.006;2022-08-25T12:58:53;30.10;73.00
21906;DHT22;11117;48.644;9.006;2022-08-25T13:10:45;29.90;72.70
21906;DHT22;11117;48.644;9.006;2022-08-25T13:13:53;29.70;72.80
21906;DHT22;11117;48.644;9.006;2022-08-25T13:16:22;29.70;73.20
21906;DHT22;11117;48.644;9.006;2022-08-25T13:18:48;29.80;73.30
21906;DHT22;11117;48.644;9.006;2022-08-25T13:21:43;29.80;72.90
21906;DHT22;11117;48.644;9.006;2022-08-25T13:24:17;29.70;72.20
21906;DHT22;11117;48.644;9.006;2022-08-25T13:27:37;29.60;72.20
21906;DHT22;11117;48.644;9.006;2022-08-25T13:30:01;29.70;72.70
21906;DHT22;11117;48.644;9.006;2022-08-25T13:32:33;29.80;72.70
21906;DHT22;11117;48.644;9.006;2022-08-25T13:35:19;29.90;73.60
21906;DHT22;11117;48.644;9.006;2022-08-25T13:37:46;30.20;71.40
21906;DHT22;11117;48.644;9.006;2022-08-25T13:40:27;30.20;71.20
21906;DHT22;11117;48.644;9.006;2022-08-25T13:42:57;30.20;71.70
21906;DHT22;11117;48.644;9.006;2022-08-25T13:45:26;30.50;71.70
21906;DHT22;11117;48.644;9.006;2022-08-25T13:47:52;30.50;70.70
21906;DHT22;11117;48.644;9.006;2022-08-25T13:53:11;30.40;70.80
21906;DHT22;11117;48.644;9.006;2022-08-25T13:55:50;30.60;71.10
21906;DHT22;11117;48.644;9.006;2022-08-25T13:58:24;30.80;69.90
21906;DHT22;11117;48.644;9.006;2022-08-25T14:03:38;30.60;69.20
21906;DHT22;11117;48.644;9.006;2022-08-25T14:08:42;29.90;70.20
21906;DHT22;11117;48.644;9.006;2022-08-25T14:14:01;30.30;70.30
21906;DHT22;11117;48.644;9.006;2022-08-25T14:16:29;30.40;70.50
21906;DHT22;11117;48.644;9.006;2022-08-25T14:18:59;30.60;70.50
21906;DHT22;11117;48.644;9.006;2022-08-25T14:21:29;30.70;70.50
21906;DHT22;11117;48.644;9.006;2022-08-25T14:23:56;30.70;70.60
21906;DHT22;11117;48.644;9.006;2022-08-25T14:26:25;30.60;70.30
21906;DHT22;11117;48.644;9.006;2022-08-25T14:28:58;30.60;70.30
21906;DHT22;11117;48.644;9.006;2022-08-25T14:31:33;30.60;70.30
21906;DHT22;11117;48.644;9.006;2022-08-25T14:36:45;30.50;70.60
21906;DHT22;11117;48.644;9.006;2022-08-25T14:39:11;30.40;70.40
21906;DHT22;11117;48.644;9.006;2022-08-25T14:41:41;30.30;70.20
21906;DHT22;11117;48.644;9.006;2022-08-25T14:44:08;30.10;70.80
21906;DHT22;11117;48.644;9.006;2022-08-25T14:46:36;30.10;71.00
21906;DHT22;11117;48.644;9.006;2022-08-25T14:49:10;30.10;71.00
21906;DHT22;11117;48.644;9.006;2022-08-25T14:51:40;30.10;71.10
21906;DHT22;11117;48.644;9.006;2022-08-25T14:54:13;30.20;70.20
21906;DHT22;11117;48.644;9.006;2022-08-25T14:56:46;30.20;70.50
21906;DHT22;11117;48.644;9.006;2022-08-25T14:59:12;30.20;70.50
21906;DHT22;11117;48.644;9.006;2022-08-25T15:01:37;30.20;69.80
21906;DHT22;11117;48.644;9.006;2022-08-25T15:07:03;30.30;69.90
21906;DHT22;11117;48.644;9.006;2022-08-25T15:09:31;30.30;68.90
21906;DHT22;11117;48.644;9.006;2022-08-25T15:12:00;30.20;68.30
21906;DHT22;11117;48.644;9.006;2022-08-25T15:17:07;30.00;69.50
21906;DHT22;11117;48.644;9.006;2022-08-25T15:19:43;30.10;69.20
21906;DHT22;11117;48.644;9.006;2022-08-25T15:22:18;30.10;68.50
21906;DHT22;11117;48.644;9.006;2022-08-25T15:24:44;30.10;68.50
21906;DHT22;11117;48.644;9.006;2022-08-25T15:27:11;30.10;68.80
21906;DHT22;11117;48.644;9.006;2022-08-25T15:29:46;30.00;69.10
21906;DHT22;11117;48.644;9.006;2022-08-25T15:32:13;30.00;69.00
21906;DHT22;11117;48.644;9.006;2022-08-25T15:34:39;30.00;68.90
21906;DHT22;11117;48.644;9.006;2022-08-25T15:37:11;30.00;68.30
21906;DHT22;11117;48.644;9.006;2022-08-25T15:39:42;30.00;68.60
21906;DHT22;11117;48.644;9.006;2022-08-25T15:42:11;30.00;68.40
21906;DHT22;11117;48.644;9.006;2022-08-25T15:44:38;30.10;67.80
21906;DHT22;11117;48.644;9.006;2022-08-25T15:47:03;30.10;67.40
21906;DHT22;11117;48.644;9.006;2022-08-25T15:49:35;30.10;67.60
21906;DHT22;11117;48.644;9.006;2022-08-25T15:52:07;30.10;68.30
21906;DHT22;11117;48.644;9.006;2022-08-25T15:54:32;30.10;67.70
21906;DHT22;11117;48.644;9.006;2022-08-25T15:56:58;30.00;67.90
21906;DHT22;11117;48.644;9.006;2022-08-25T15:59:26;30.00;68.30
21906;DHT22;11117;48.644;9.006;2022-08-25T16:02:01;30.00;67.30
21906;DHT22;11117;48.644;9.006;2022-08-25T16:04:27;30.00;68.20
21906;DHT22;11117;48.644;9.006;2022-08-25T16:06:57;30.00;68.70
21906;DHT22;11117;48.644;9.006;2022-08-25T16:09:26;30.00;68.50
21906;DHT22;11117;48.644;9.006;2022-08-25T16:11:52;29.80;69.80
21906;DHT22;11117;48.644;9.006;2022-08-25T16:14:17;29.70;70.40
21906;DHT22;11117;48.644;9.006;2022-08-25T16:16:43;29.70;71.00
21906;DHT22;11117;48.644;9.006;2022-08-25T16:19:09;29.60;71.20
21906;DHT22;11117;48.644;9.006;2022-08-25T16:21:34;29.60;71.40
21906;DHT22;11117;48.644;9.006;2022-08-25T16:24:02;29.60;71.40
21906;DHT22;11117;48.644;9.006;2022-08-25T16:26:29;29.40;71.00
21906;DHT22;11117;48.644;9.006;2022-08-25T16:28:55;29.30;71.30
21906;DHT22;11117;48.644;9.006;2022-08-25T16:31:21;29.20;71.30
21906;DHT22;11117;48.644;9.006;2022-08-25T16:33:50;29.10;71.70
21906;DHT22;11117;48.644;9.006;2022-08-25T16:36:19;29.10;72.00
21906;DHT22;11117;48.644;9.006;2022-08-25T16:38:46;29.00;71.70
21906;DHT22;11117;48.644;9.006;2022-08-25T16:41:16;29.10;72.00
21906;DHT22;11117;48.644;9.006;2022-08-25T16:43:43;29.00;72.00
21906;DHT22;11117;48.644;9.006;2022-08-25T16:46:10;28.90;72.20
21906;DHT22;11117;48.644;9.006;2022-08-25T16:48:42;28.90;72.10
21906;DHT22;11117;48.644;9.006;2022-08-25T16:51:10;28.80;72.10
21906;DHT22;11117;48.644;9.006;2022-08-25T16:53:38;28.70;72.30
21906;DHT22;11117;48.644;9.006;2022-08-25T16:56:04;28.70;72.50
21906;DHT22;11117;48.644;9.006;2022-08-25T16:58:31;28.60;72.80
21906;DHT22;11117;48.644;9.006;2022-08-25T17:01:08;28.50;73.00
21906;DHT22;11117;48.644;9.006;2022-08-25T17:03:34;28.50;73.10
21906;DHT22;11117;48.644;9.006;2022-08-25T17:06:00;28.40;73.20
21906;DHT22;11117;48.644;9.006;2022-08-25T17:08:26;28.30;73.70
21906;DHT22;11117;48.644;9.006;2022-08-25T17:11:03;28.30;74.00
21906;DHT22;11117;48.644;9.006;2022-08-25T17:13:29;28.20;73.90
21906;DHT22;11117;48.644;9.006;2022-08-25T17:15:54;28.10;73.70
21906;DHT22;11117;48.644;9.006;2022-08-25T17:18:20;28.10;73.70
21906;DHT22;11117;48.644;9.006;2022-08-25T17:20:46;28.00;73.90
21906;DHT22;11117;48.644;9.006;2022-08-25T17:23:11;28.00;74.20
21906;DHT22;11117;48.644;9.006;2022-08-25T17:25:38;27.90;74.00
21906;DHT22;11117;48.644;9.006;2022-08-25T17:28:04;27.90;74.30
21906;DHT22;11117;48.644;9.006;2022-08-25T17:30:32;27.80;74.40
21906;DHT22;11117;48.644;9.006;2022-08-25T17:32:58;27.80;74.90
21906;DHT22;11117;48.644;9.006;2022-08-25T17:35:24;27.70;75.40
21906;DHT22;11117;48.644;9.006;2022-08-25T17:37:50;27.70;75.80
21906;DHT22;11117;48.644;9.006;2022-08-25T17:40:16;27.60;76.00
21906;DHT22;11117;48.644;9.006;2022-08-25T17:42:41;27.50;76.30
21906;DHT22;11117;48.644;9.006;2022-08-25T17:45:07;27.40;76.50
21906;DHT22;11117;48.644;9.006;2022-08-25T17:47:33;27.30;76.70
21906;DHT22;11117;48.644;9.006;2022-08-25T17:49:58;27.30;77.00
21906;DHT22;11117;48.644;9.006;2022-08-25T17:52:24;27.20;77.20
21906;DHT22;11117;48.644;9.006;2022-08-25T17:54:50;27.10;77.40
21906;DHT22;11117;48.644;9.006;2022-08-25T17:57:15;27.00;77.90
21906;DHT22;11117;48.644;9.006;2022-08-25T17:59:41;27.00;78.10
21906;DHT22;11117;48.644;9.006;2022-08-25T18:02:07;26.90;78.50
21906;DHT22;11117;48.644;9.006;2022-08-25T18:04:35;26.80;78.70
21906;DHT22;11117;48.644;9.006;2022-08-25T18:07:01;26.80;79.20